createdAt,value
2022-09-16T00:00:47.802Z,65.51
2022-09-16T00:03:17.449Z,65.13
2022-09-16T00:05:47.848Z,65.60
2022-09-16T00:08:16.277Z,65.86
2022-09-16T00:10:43.972Z,65.65
2022-09-16T00:13:12.440Z,65.79
2022-09-16T00:15:44.561Z,65.78
2022-09-16T00:18:12.078Z,65.59
2022-09-16T00:20:48.814Z,66.04
2022-09-16T00:23:15.944Z,66.35
2022-09-16T00:25:42.835Z,67.00
2022-09-16T00:28:10.166Z,67.08
2022-09-16T00:30:37.212Z,67.22
2022-09-16T00:33:04.075Z,67.16
2022-09-16T00:35:30.885Z,67.21
2022-09-16T00:37:57.697Z,67.42
2022-09-16T00:40:24.640Z,67.35
2022-09-16T00:42:51.498Z,67.66
2022-09-16T00:45:24.626Z,67.54
2022-09-16T00:48:15.021Z,66.91
2022-09-16T00:50:51.226Z,67.06
2022-09-16T00:53:43.326Z,66.86
2022-09-16T00:56:13.385Z,67.60
2022-09-16T00:59:19.851Z,67.42
2022-09-16T01:01:47.321Z,67.47
2022-09-16T01:04:21.446Z,67.98
2022-09-16T01:06:49.580Z,67.61
2022-09-16T01:09:18.384Z,67.82
2022-09-16T01:11:45.336Z,68.04
2022-09-16T01:14:31.989Z,68.65
2022-09-16T01:17:15.205Z,68.62
2022-09-16T01:19:48.021Z,68.57
2022-09-16T01:22:59.326Z,69.28
2022-09-16T01:26:19.036Z,69.27
2022-09-16T01:29:33.205Z,69.30
2022-09-16T01:32:24.800Z,69.47
2022-09-16T01:35:29.689Z,69.52
2022-09-16T01:38:05.270Z,69.82
2022-09-16T01:40:47.801Z,69.41
2022-09-16T01:43:31.329Z,69.49
2022-09-16T01:46:09.357Z,69.58
2022-09-16T01:48:44.765Z,69.07
2022-09-16T01:51:26.340Z,68.85
2022-09-16T01:54:07.100Z,68.82
2022-09-16T01:57:04.479Z,68.79
2022-09-16T01:59:57.409Z,69.24
2022-09-16T02:02:33.393Z,70.43
2022-09-16T02:05:07.630Z,70.05
2022-09-16T02:07:39.625Z,70.65
2022-09-16T02:10:23.092Z,71.00
2022-09-16T02:12:53.639Z,70.01
2022-09-16T02:15:23.601Z,69.82
2022-09-16T02:18:02.668Z,69.47
2022-09-16T02:20:32.241Z,69.69
2022-09-16T02:23:07.670Z,70.09
2022-09-16T02:25:38.773Z,70.34
2022-09-16T02:28:13.119Z,70.52
2022-09-16T02:30:47.147Z,70.89
2022-09-16T02:33:16.903Z,70.60
2022-09-16T02:35:48.449Z,70.82
2022-09-16T02:38:25.163Z,71.35
2022-09-16T02:40:58.242Z,70.74
2022-09-16T02:43:26.842Z,71.35
2022-09-16T02:46:33.665Z,71.22
2022-09-16T02:49:23.679Z,72.17
2022-09-16T02:52:44.485Z,71.83
2022-09-16T02:55:23.127Z,71.98
2022-09-16T02:57:50.355Z,72.52
2022-09-16T03:00:17.622Z,72.21
2022-09-16T03:02:45.006Z,71.49
2022-09-16T03:05:11.929Z,71.59
2022-09-16T03:07:41.275Z,71.78
2022-09-16T03:10:14.993Z,71.74
2022-09-16T03:12:49.422Z,72.05
2022-09-16T03:15:46.826Z,71.66
2022-09-16T03:18:27.017Z,71.36
2022-09-16T03:21:18.645Z,71.53
2022-09-16T03:24:03.001Z,71.75
2022-09-16T03:26:59.062Z,72.33
2022-09-16T03:29:34.838Z,71.69
2022-09-16T03:32:22.665Z,71.12
2022-09-16T03:35:00.997Z,71.88
2022-09-16T03:37:34.181Z,72.34
2022-09-16T03:40:08.815Z,72.30
2022-09-16T03:42:39.255Z,72.23
2022-09-16T03:45:07.492Z,72.43
2022-09-16T03:47:34.654Z,71.89
2022-09-16T03:50:01.652Z,71.77
2022-09-16T03:52:28.438Z,72.17
2022-09-16T03:54:55.204Z,72.79
2022-09-16T03:57:22.135Z,72.77
2022-09-16T03:59:48.952Z,72.71
2022-09-16T04:02:15.825Z,72.47
2022-09-16T04:04:42.960Z,72.21
2022-09-16T04:07:09.732Z,72.09
2022-09-16T04:09:37.286Z,72.37
2022-09-16T04:12:07.480Z,72.36
2022-09-16T04:14:35.503Z,72.70
2022-09-16T04:17:02.595Z,72.45
2022-09-16T04:19:29.437Z,73.05
2022-09-16T04:21:56.309Z,72.68
2022-09-16T04:24:23.126Z,73.20
2022-09-16T04:26:50.023Z,73.29
2022-09-16T04:29:17.325Z,72.61
2022-09-16T04:31:44.437Z,72.50
2022-09-16T04:34:14.229Z,72.61
2022-09-16T04:36:41.026Z,72.64
2022-09-16T04:39:08.414Z,73.14
2022-09-16T04:41:35.222Z,74.08
2022-09-16T04:44:02.361Z,73.78
2022-09-16T04:46:30.997Z,72.88
2022-09-16T04:48:59.510Z,73.69
2022-09-16T04:51:27.948Z,73.86
2022-09-16T04:53:58.605Z,73.04
2022-09-16T04:56:29.125Z,73.07
2022-09-16T04:59:00.310Z,73.05
2022-09-16T05:01:30.863Z,73.61
2022-09-16T05:04:01.307Z,73.04
2022-09-16T05:06:32.324Z,72.77
2022-09-16T05:09:02.779Z,72.71
2022-09-16T05:11:36.996Z,72.20
2022-09-16T05:14:07.650Z,72.84
2022-09-16T05:16:35.125Z,72.75
2022-09-16T05:19:05.839Z,72.83
2022-09-16T05:21:35.910Z,73.20
2022-09-16T05:24:08.518Z,73.07
2022-09-16T05:26:38.794Z,73.38
2022-09-16T05:29:11.049Z,73.32
2022-09-16T05:31:40.649Z,72.82
2022-09-16T05:34:14.058Z,72.77
2022-09-16T05:36:43.722Z,72.64
2022-09-16T05:39:23.182Z,72.87
2022-09-16T05:41:55.677Z,72.70
2022-09-16T05:44:23.161Z,72.24
2022-09-16T05:46:50.060Z,72.18
2022-09-16T05:49:21.151Z,72.02
2022-09-16T05:51:49.410Z,71.63
2022-09-16T05:54:21.009Z,71.54
2022-09-16T05:56:48.829Z,70.61
2022-09-16T05:59:17.332Z,70.57
2022-09-16T06:01:45.377Z,70.65
2022-09-16T06:04:15.152Z,70.27
2022-09-16T06:06:46.994Z,70.37
2022-09-16T06:09:24.663Z,70.86
2022-09-16T06:11:59.405Z,70.87
2022-09-16T06:14:28.455Z,70.49
2022-09-16T06:16:55.638Z,70.69
2022-09-16T06:19:22.736Z,71.07
2022-09-16T06:21:49.829Z,70.20
2022-09-16T06:24:19.381Z,70.00
2022-09-16T06:26:48.319Z,69.60
2022-09-16T06:29:16.602Z,69.63
2022-09-16T06:31:43.674Z,68.91
2022-09-16T06:34:18.279Z,68.68
2022-09-16T06:36:45.821Z,68.84
2022-09-16T06:39:15.035Z,68.80
2022-09-16T06:41:41.921Z,68.10
2022-09-16T06:44:08.848Z,68.15
2022-09-16T06:46:35.773Z,68.61
2022-09-16T06:49:06.120Z,68.10
2022-09-16T06:51:34.510Z,67.82
2022-09-16T06:54:05.845Z,67.93
2022-09-16T06:56:35.888Z,68.20
2022-09-16T06:59:03.535Z,68.28
2022-09-16T07:01:31.720Z,68.05
2022-09-16T07:04:01.492Z,67.91
2022-09-16T07:06:57.362Z,68.28
2022-09-16T07:09:17.631Z,66.89
2022-09-16T07:11:44.579Z,67.10
2022-09-16T07:14:12.287Z,66.83
2022-09-16T07:16:39.167Z,65.81
2022-09-16T07:19:06.418Z,65.43
2022-09-16T07:21:33.311Z,64.37
2022-09-16T07:24:02.447Z,63.09
2022-09-16T07:26:32.724Z,62.81
2022-09-16T07:29:03.599Z,62.04
2022-09-16T07:31:34.288Z,62.40
2022-09-16T07:34:04.304Z,62.33
2022-09-16T07:36:36.302Z,61.61
2022-09-16T07:39:03.775Z,61.25
2022-09-16T07:41:38.536Z,61.95
2022-09-16T07:44:07.400Z,61.64
2022-09-16T07:46:36.704Z,61.26
2022-09-16T07:49:07.081Z,60.81
2022-09-16T07:51:34.948Z,60.86
2022-09-16T07:54:07.110Z,60.31
2022-09-16T07:56:37.071Z,60.21
2022-09-16T07:59:06.634Z,60.40
2022-09-16T08:01:34.246Z,60.01
2022-09-16T08:04:02.435Z,59.50
2022-09-16T08:06:31.770Z,59.75
2022-09-16T08:09:10.015Z,59.13
2022-09-16T08:11:42.258Z,59.06
2022-09-16T08:14:09.081Z,59.48
2022-09-16T08:16:37.212Z,58.64
2022-09-16T08:19:04.399Z,58.02
2022-09-16T08:21:31.357Z,57.41
2022-09-16T08:23:58.336Z,56.72
2022-09-16T08:26:26.220Z,56.67
2022-09-16T08:29:10.129Z,56.70
2022-09-16T08:31:38.568Z,56.12
2022-09-16T08:34:06.329Z,55.93
2022-09-16T08:36:34.067Z,56.63
2022-09-16T08:39:01.483Z,55.57
2022-09-16T08:42:00.117Z,54.69
2022-09-16T08:45:09.883Z,54.68
2022-09-16T08:48:07.953Z,53.90
2022-09-16T08:50:42.289Z,53.02
2022-09-16T08:53:41.186Z,51.62
2022-09-16T08:56:14.773Z,49.61
2022-09-16T08:58:49.656Z,48.91
2022-09-16T09:01:39.380Z,48.95
2022-09-16T09:04:06.523Z,48.45
2022-09-16T09:07:10.146Z,48.63
2022-09-16T09:09:56.993Z,49.30
2022-09-16T09:12:38.367Z,48.86
2022-09-16T09:15:44.763Z,48.55
2022-09-16T09:18:28.616Z,49.39
2022-09-16T09:21:21.193Z,50.07
2022-09-16T09:23:53.669Z,50.28
2022-09-16T09:26:48.859Z,49.38
2022-09-16T09:29:56.918Z,49.18
2022-09-16T09:32:46.064Z,48.54
2022-09-16T09:35:36.168Z,44.77
2022-09-16T09:38:33.191Z,38.15
2022-09-16T09:41:36.770Z,36.02
2022-09-16T09:44:45.505Z,36.35
2022-09-16T09:47:28.385Z,31.38
2022-09-16T09:49:58.961Z,27.80
2022-09-16T09:52:40.150Z,23.39
2022-09-16T09:55:20.189Z,21.96
2022-09-16T09:58:34.981Z,26.17
2022-09-16T10:01:02.114Z,28.77
2022-09-16T10:03:30.467Z,30.98
2022-09-16T10:05:57.459Z,33.11
2022-09-16T10:08:30.898Z,32.54
2022-09-16T10:11:01.569Z,30.84
2022-09-16T10:13:30.446Z,28.67
2022-09-16T10:16:15.731Z,26.46
2022-09-16T10:18:44.013Z,26.35
2022-09-16T10:21:15.144Z,27.33
2022-09-16T10:23:53.732Z,28.78
2022-09-16T10:26:25.011Z,30.44
2022-09-16T10:29:14.714Z,30.50
2022-09-16T10:31:42.824Z,31.32
2022-09-16T10:34:31.815Z,31.37
2022-09-16T10:37:19.516Z,32.21
2022-09-16T10:39:53.521Z,32.89
2022-09-16T10:42:24.109Z,33.00
2022-09-16T10:44:55.147Z,32.55
2022-09-16T10:47:33.925Z,33.76
2022-09-16T10:50:06.655Z,34.04
2022-09-16T10:52:45.888Z,35.58
2022-09-16T10:55:23.723Z,36.41
2022-09-16T10:57:51.402Z,36.99
2022-09-16T11:00:22.621Z,36.11
2022-09-16T11:03:32.362Z,36.74
2022-09-16T11:06:23.017Z,36.94
2022-09-16T11:08:57.854Z,38.39
2022-09-16T11:11:51.976Z,38.41
2022-09-16T11:14:55.289Z,38.22
2022-09-16T11:17:56.586Z,38.00
2022-09-16T11:20:36.699Z,38.47
2022-09-16T11:23:16.769Z,38.76
2022-09-16T11:26:01.990Z,38.88
2022-09-16T11:28:42.777Z,39.60
2022-09-16T11:31:52.542Z,39.84
2022-09-16T11:34:34.298Z,40.38
2022-09-16T11:37:15.267Z,40.96
2022-09-16T11:40:25.658Z,41.26
2022-09-16T11:43:11.040Z,41.81
2022-09-16T11:46:08.409Z,41.09
2022-09-16T11:49:15.408Z,42.07
2022-09-16T11:51:54.764Z,42.29
2022-09-16T11:54:24.583Z,41.38
2022-09-16T11:56:56.962Z,42.03
2022-09-16T11:59:32.241Z,41.66
2022-09-16T12:02:21.895Z,41.47
2022-09-16T12:05:20.124Z,41.79
2022-09-16T12:08:23.517Z,41.64
2022-09-16T12:11:23.258Z,41.28
2022-09-16T12:14:15.446Z,41.47
2022-09-16T12:17:06.036Z,41.31
2022-09-16T12:19:44.100Z,41.48
2022-09-16T12:22:37.290Z,41.38
2022-09-16T12:25:13.852Z,41.18
2022-09-16T12:27:52.466Z,41.24
2022-09-16T12:30:27.589Z,40.88
2022-09-16T12:33:11.026Z,41.21
2022-09-16T12:35:49.267Z,41.43
2022-09-16T12:38:19.262Z,43.02
2022-09-16T12:41:37.038Z,43.14
2022-09-16T12:44:34.457Z,42.93
2022-09-16T12:47:45.078Z,42.59
2022-09-16T12:50:38.387Z,43.30
2022-09-16T12:53:46.262Z,43.24
2022-09-16T12:56:39.630Z,43.17
2022-09-16T12:59:36.992Z,43.64
2022-09-16T13:02:17.985Z,43.70
2022-09-16T13:04:55.288Z,43.73
2022-09-16T13:07:28.438Z,44.17
2022-09-16T13:10:53.781Z,44.11
2022-09-16T13:13:40.038Z,43.78
2022-09-16T13:16:09.233Z,44.09
2022-09-16T13:18:41.324Z,44.09
2022-09-16T13:21:25.575Z,44.99
2022-09-16T13:24:27.357Z,50.89
2022-09-16T13:26:55.432Z,58.90
2022-09-16T13:29:42.528Z,60.93
2022-09-16T13:32:40.356Z,62.85
2022-09-16T13:35:19.632Z,62.91
2022-09-16T13:37:51.781Z,63.58
2022-09-16T13:40:30.446Z,61.41
2022-09-16T13:43:14.074Z,62.55
2022-09-16T13:45:45.168Z,62.15
2022-09-16T13:48:23.604Z,61.72
2022-09-16T13:50:54.905Z,62.21
2022-09-16T13:53:33.199Z,61.99
2022-09-16T13:56:40.828Z,61.83
2022-09-16T13:59:33.377Z,60.52
2022-09-16T14:02:15.505Z,57.26
2022-09-16T14:05:42.955Z,57.29
2022-09-16T14:08:40.545Z,57.39
2022-09-16T14:11:35.275Z,58.17
2022-09-16T14:14:36.334Z,57.35
2022-09-16T14:17:05.913Z,56.04
2022-09-16T14:19:38.919Z,53.94
2022-09-16T14:22:19.515Z,55.01
2022-09-16T14:24:50.338Z,55.82
2022-09-16T14:27:43.579Z,55.09
2022-09-16T14:30:19.946Z,54.30
2022-09-16T14:32:48.868Z,55.42
2022-09-16T14:35:26.488Z,55.78
2022-09-16T14:38:08.397Z,56.80
2022-09-16T14:40:40.523Z,57.41
2022-09-16T14:43:12.071Z,57.28
2022-09-16T14:45:45.647Z,57.75
2022-09-16T14:48:14.636Z,57.59
2022-09-16T14:50:48.044Z,57.99
2022-09-16T14:53:35.312Z,58.12
2022-09-16T14:56:04.780Z,58.51
2022-09-16T14:58:33.185Z,58.14
2022-09-16T15:01:10.602Z,58.21
2022-09-16T15:03:53.099Z,57.91
2022-09-16T15:06:25.534Z,56.54
2022-09-16T15:09:00.557Z,56.73
2022-09-16T15:11:47.676Z,57.14
2022-09-16T15:14:17.078Z,56.22
2022-09-16T15:16:53.477Z,56.68
2022-09-16T15:19:35.051Z,56.18
2022-09-16T15:22:02.672Z,56.25
2022-09-16T15:24:34.054Z,56.20
2022-09-16T15:27:01.652Z,56.79
2022-09-16T15:29:32.806Z,57.57
2022-09-16T15:32:20.870Z,56.83
2022-09-16T15:34:49.502Z,57.10
2022-09-16T15:37:33.910Z,56.16
2022-09-16T15:40:22.646Z,57.19
2022-09-16T15:43:14.572Z,56.27
2022-09-16T15:45:44.179Z,56.10
2022-09-16T15:48:20.638Z,55.97
2022-09-16T15:51:09.129Z,57.84
2022-09-16T15:53:42.775Z,57.80
2022-09-16T15:56:48.377Z,57.90
2022-09-16T15:59:29.538Z,58.31
2022-09-16T16:02:00.721Z,58.23
2022-09-16T16:04:32.044Z,58.50
2022-09-16T16:07:02.077Z,58.63
2022-09-16T16:09:28.829Z,58.71
2022-09-16T16:12:16.158Z,58.68
2022-09-16T16:14:43.697Z,59.21
2022-09-16T16:17:17.957Z,58.49
2022-09-16T16:19:47.659Z,58.37
2022-09-16T16:22:15.417Z,59.10
2022-09-16T16:24:42.403Z,58.81
2022-09-16T16:27:10.479Z,58.84
2022-09-16T16:29:38.816Z,58.82
2022-09-16T16:32:14.394Z,59.15
2022-09-16T16:34:47.817Z,58.66
2022-09-16T16:37:40.291Z,59.58
2022-09-16T16:40:06.587Z,59.60
2022-09-16T16:42:34.732Z,60.60
2022-09-16T16:45:01.741Z,61.24
2022-09-16T16:47:28.565Z,62.60
2022-09-16T16:49:55.506Z,63.48
2022-09-16T16:52:22.390Z,60.73
2022-09-16T16:54:49.311Z,59.10
2022-09-16T16:57:16.526Z,59.44
2022-09-16T16:59:43.357Z,58.98
2022-09-16T17:02:12.327Z,59.30
2022-09-16T17:04:39.256Z,59.52
2022-09-16T17:07:25.146Z,59.43
2022-09-16T17:09:53.554Z,60.07
2022-09-16T17:12:20.490Z,59.92
2022-09-16T17:14:47.623Z,59.82
2022-09-16T17:17:14.516Z,60.17
2022-09-16T17:19:41.321Z,60.05
2022-09-16T17:22:08.228Z,61.01
2022-09-16T17:24:35.093Z,60.97
2022-09-16T17:27:02.102Z,61.46
2022-09-16T17:29:29.131Z,61.20
2022-09-16T17:32:00.642Z,61.45
2022-09-16T17:34:27.587Z,61.67
2022-09-16T17:36:54.639Z,62.12
2022-09-16T17:39:22.695Z,62.46
2022-09-16T17:41:51.037Z,61.93
2022-09-16T17:44:19.282Z,62.42
2022-09-16T17:46:47.121Z,62.34
2022-09-16T17:49:21.603Z,61.77
2022-09-16T17:51:49.594Z,61.72
2022-09-16T17:54:16.976Z,62.56
2022-09-16T17:56:44.037Z,62.09
2022-09-16T17:59:12.886Z,62.36
2022-09-16T18:01:40.106Z,62.46
2022-09-16T18:04:07.455Z,62.93
2022-09-16T18:06:41.641Z,63.04
2022-09-16T18:09:08.785Z,63.22
2022-09-16T18:11:38.030Z,64.26
2022-09-16T18:14:08.024Z,64.26
2022-09-16T18:16:35.419Z,64.50
2022-09-16T18:19:03.987Z,64.68
2022-09-16T18:21:32.105Z,65.78
2022-09-16T18:24:04.121Z,66.19
2022-09-16T18:26:32.184Z,66.68
2022-09-16T18:29:10.832Z,67.07
2022-09-16T18:31:45.013Z,66.54
2022-09-16T18:34:13.128Z,66.71
2022-09-16T18:36:40.791Z,66.33
2022-09-16T18:39:12.038Z,66.32
2022-09-16T18:41:41.124Z,66.74
2022-09-16T18:44:20.776Z,67.10
2022-09-16T18:46:48.097Z,67.00
2022-09-16T18:49:17.035Z,66.49
2022-09-16T18:51:51.273Z,66.93
2022-09-16T18:54:29.220Z,67.39
2022-09-16T18:56:59.020Z,66.64
2022-09-16T18:59:29.798Z,67.16
2022-09-16T19:02:00.938Z,66.93
2022-09-16T19:04:31.767Z,66.80
2022-09-16T19:07:08.270Z,67.15
2022-09-16T19:09:39.572Z,66.84
2022-09-16T19:12:11.049Z,67.17
2022-09-16T19:14:38.853Z,66.53
2022-09-16T19:17:06.075Z,66.54
2022-09-16T19:19:33.575Z,67.05
2022-09-16T19:22:00.487Z,67.10
2022-09-16T19:24:27.464Z,66.54
2022-09-16T19:26:55.942Z,67.16
2022-09-16T19:29:23.421Z,66.82
2022-09-16T19:31:52.830Z,66.52
2022-09-16T19:34:21.025Z,67.25
2022-09-16T19:36:48.464Z,67.26
2022-09-16T19:39:15.441Z,67.06
2022-09-16T19:41:43.172Z,67.37
2022-09-16T19:44:15.793Z,67.48
2022-09-16T19:46:44.770Z,67.00
2022-09-16T19:49:17.718Z,67.82
2022-09-16T19:51:44.912Z,67.63
2022-09-16T19:54:12.404Z,68.38
2022-09-16T19:56:39.256Z,67.76
2022-09-16T19:59:06.158Z,68.27
2022-09-16T20:01:34.963Z,68.09
2022-09-16T20:04:06.449Z,68.45
2022-09-16T20:06:40.778Z,67.96
2022-09-16T20:09:11.577Z,68.32
2022-09-16T20:11:42.042Z,68.23
2022-09-16T20:14:15.453Z,67.69
2022-09-16T20:16:43.163Z,68.10
2022-09-16T20:19:13.536Z,68.06
2022-09-16T20:21:41.324Z,68.05
2022-09-16T20:24:15.888Z,67.94
2022-09-16T20:26:42.733Z,67.98
2022-09-16T20:29:09.601Z,68.58
2022-09-16T20:31:37.216Z,68.29
2022-09-16T20:34:05.540Z,68.64
2022-09-16T20:36:38.130Z,69.03
2022-09-16T20:39:07.362Z,69.04
2022-09-16T20:41:35.923Z,69.32
2022-09-16T20:44:06.487Z,69.38
2022-09-16T20:46:37.280Z,69.95
2022-09-16T20:49:06.740Z,70.18
2022-09-16T20:51:34.760Z,70.29
2022-09-16T20:54:08.822Z,70.59
2022-09-16T20:56:42.916Z,71.29
2022-09-16T20:59:13.223Z,71.24
2022-09-16T21:01:41.641Z,71.54
2022-09-16T21:04:18.486Z,71.43
2022-09-16T21:06:45.834Z,72.25
2022-09-16T21:09:25.764Z,72.85
2022-09-16T21:11:52.877Z,72.65
2022-09-16T21:14:21.873Z,72.77
2022-09-16T21:16:52.308Z,72.86
2022-09-16T21:19:21.662Z,72.34
2022-09-16T21:21:59.099Z,72.09
2022-09-16T21:24:26.737Z,72.91
2022-09-16T21:26:53.791Z,72.53
2022-09-16T21:29:30.965Z,71.81
2022-09-16T21:31:59.814Z,72.34
2022-09-16T21:34:29.675Z,72.01
2022-09-16T21:36:59.185Z,72.32
2022-09-16T21:39:26.311Z,72.04
2022-09-16T21:41:53.120Z,71.72
2022-09-16T21:44:19.962Z,72.31
2022-09-16T21:46:50.851Z,71.88
2022-09-16T21:49:24.175Z,71.70
2022-09-16T21:51:57.231Z,70.98
2022-09-16T21:54:25.407Z,71.05
2022-09-16T21:56:52.915Z,71.29
2022-09-16T21:59:20.227Z,72.04
2022-09-16T22:01:49.287Z,71.79
2022-09-16T22:04:20.727Z,71.13
2022-09-16T22:06:51.248Z,71.54
2022-09-16T22:09:18.278Z,71.31
2022-09-16T22:11:45.197Z,72.22
2022-09-16T22:14:12.234Z,72.02
2022-09-16T22:16:39.979Z,72.87
2022-09-16T22:19:14.427Z,71.99
2022-09-16T22:21:46.149Z,73.00
2022-09-16T22:24:16.008Z,72.69
2022-09-16T22:26:43.445Z,72.63
2022-09-16T22:29:12.426Z,72.83
2022-09-16T22:31:41.800Z,73.07
2022-09-16T22:34:09.463Z,73.25
2022-09-16T22:36:37.942Z,73.22
2022-09-16T22:39:11.350Z,73.02
2022-09-16T22:41:38.337Z,72.96
2022-09-16T22:44:05.528Z,73.03
2022-09-16T22:46:37.027Z,73.00
2022-09-16T22:49:04.524Z,73.68
2022-09-16T22:51:32.246Z,73.51
2022-09-16T22:53:59.117Z,73.42
2022-09-16T22:56:31.758Z,74.27
2022-09-16T22:59:04.619Z,73.65
2022-09-16T23:01:38.915Z,73.93
2022-09-16T23:04:08.198Z,73.79
2022-09-16T23:06:37.482Z,73.29
2022-09-16T23:09:06.614Z,74.21
2022-09-16T23:11:35.833Z,73.67
2022-09-16T23:14:04.098Z,74.39
2022-09-16T23:16:35.036Z,73.30
2022-09-16T23:19:07.273Z,74.17
2022-09-16T23:21:34.153Z,73.14
2022-09-16T23:24:03.384Z,73.97
2022-09-16T23:26:37.383Z,73.99
2022-09-16T23:29:07.684Z,73.51
2022-09-16T23:31:41.258Z,72.91
2022-09-16T23:34:19.114Z,73.51
2022-09-16T23:36:46.563Z,72.82
2022-09-16T23:39:15.365Z,72.92
2022-09-16T23:41:43.221Z,73.16
2022-09-16T23:44:13.449Z,72.83
2022-09-16T23:46:40.348Z,72.70
2022-09-16T23:49:07.351Z,72.60
2022-09-16T23:51:34.198Z,72.64
2022-09-16T23:54:01.088Z,72.82
2022-09-16T23:56:28.337Z,72.67
2022-09-16T23:58:59.070Z,71.92
